Time;durP1;ratioP1;P1;durP2;ratioP2;P2;SDS_P1;SDS_P2;PMS_P1;PMS_P2;Temp;Humidity;BMP_temperature;BMP_pressure;BME280_temperature;BME280_humidity;BME280_pressure;Samples;Min_cycle;Max_cycle;Signal;HPM_P1;HPM_P2
2023/06/02 00:01:17;;;;;;;11.35;2.17;;;34.70;34.30;;;;;;4911123;29;20048;-66
2023/06/02 00:03:44;;;;;;;20.77;2.30;;;34.60;34.70;;;;;;4910106;29;20113;-64
2023/06/02 00:06:18;;;;;;;14.65;2.10;;;34.60;34.80;;;;;;4908111;29;20609;-65
2023/06/02 00:08:45;;;;;;;16.50;2.42;;;34.60;34.70;;;;;;4911485;29;20577;-63
2023/06/02 00:11:12;;;;;;;17.95;2.10;;;34.50;34.80;;;;;;4909759;29;20060;-65
2023/06/02 00:13:40;;;;;;;10.43;2.17;;;34.40;34.90;;;;;;4909340;29;20150;-65
2023/06/02 00:16:06;;;;;;;14.45;2.70;;;34.30;34.60;;;;;;4911049;29;20044;-66
2023/06/02 00:18:36;;;;;;;19.80;2.30;;;34.30;35.20;;;;;;4910148;29;20389;-66
2023/06/02 00:21:03;;;;;;;15.88;2.20;;;34.30;34.90;;;;;;4908038;29;20061;-65
2023/06/02 00:23:30;;;;;;;15.30;2.13;;;34.10;34.70;;;;;;4906193;29;20426;-64
2023/06/02 00:25:57;;;;;;;14.00;1.92;;;34.00;35.10;;;;;;4908100;29;20062;-65
2023/06/02 00:28:24;;;;;;;20.23;2.35;;;33.90;35.20;;;;;;4905833;29;20078;-65
2023/06/02 00:30:51;;;;;;;9.55;2.03;;;33.90;35.40;;;;;;4909676;29;20093;-67
2023/06/02 00:33:18;;;;;;;17.65;2.45;;;34.00;35.50;;;;;;4907760;29;20427;-67
2023/06/02 00:35:45;;;;;;;16.58;1.70;;;33.90;35.10;;;;;;4907936;29;20051;-66
2023/06/02 00:38:11;;;;;;;17.88;1.92;;;33.90;35.00;;;;;;4907713;29;20131;-65
2023/06/02 00:40:38;;;;;;;11.25;1.88;;;33.90;35.10;;;;;;4913090;29;20351;-65
2023/06/02 00:43:04;;;;;;;16.58;2.08;;;33.80;35.00;;;;;;4909620;29;20102;-63
2023/06/02 00:45:32;;;;;;;8.80;1.95;;;33.80;34.80;;;;;;4908514;29;20141;-63
2023/06/02 00:48:01;;;;;;;16.92;2.63;;;33.80;34.70;;;;;;4908776;29;20527;-62
2023/06/02 00:50:28;;;;;;;18.80;2.33;;;33.70;34.90;;;;;;4907390;29;20057;-66
2023/06/02 00:52:57;;;;;;;9.95;1.65;;;33.80;34.80;;;;;;4902093;29;20066;-64
2023/06/02 00:55:27;;;;;;;10.15;1.90;;;33.70;34.90;;;;;;4906104;29;20057;-67
2023/06/02 00:57:56;;;;;;;9.90;2.03;;;33.80;34.90;;;;;;4910378;29;20527;-64
2023/06/02 01:00:23;;;;;;;11.52;2.05;;;33.70;34.70;;;;;;4909006;29;20833;-67
2023/06/02 01:02:50;;;;;;;15.00;2.15;;;33.60;34.40;;;;;;4908616;29;20050;-66
2023/06/02 01:05:19;;;;;;;9.20;1.98;;;33.50;34.40;;;;;;4906633;29;20083;-66
2023/06/02 01:07:46;;;;;;;12.50;1.85;;;33.50;34.70;;;;;;4907380;29;20783;-65
2023/06/02 01:10:16;;;;;;;17.05;2.88;;;33.40;34.80;;;;;;4909532;29;20054;-66
2023/06/02 01:12:46;;;;;;;20.23;2.97;;;33.40;34.60;;;;;;4908630;29;20071;-66
2023/06/02 01:15:12;;;;;;;12.05;2.55;;;33.40;34.40;;;;;;4908355;29;20056;-64
2023/06/02 01:17:45;;;;;;;15.07;2.33;;;33.30;34.50;;;;;;4908632;29;20111;-65
2023/06/02 01:20:13;;;;;;;18.98;9.45;;;33.20;34.40;;;;;;4911914;29;20046;-66
2023/06/02 01:22:45;;;;;;;27.35;10.45;;;33.20;34.20;;;;;;4904701;29;20066;-62
2023/06/02 01:25:22;;;;;;;59.08;10.75;;;33.00;34.10;;;;;;4907924;29;20058;-62
2023/06/02 01:27:50;;;;;;;12.85;2.00;;;33.00;34.20;;;;;;4907154;29;20057;-66
2023/06/02 01:30:18;;;;;;;14.40;2.30;;;32.90;34.40;;;;;;4909860;29;20053;-59
2023/06/02 01:33:23;;;;;;;16.90;2.00;;;32.90;34.00;;;;;;4901270;29;20098;-63
2023/06/02 01:35:54;;;;;;;16.27;2.85;;;32.70;33.70;;;;;;4897915;29;20121;-67
2023/06/02 01:38:23;;;;;;;32.03;10.10;;;32.70;33.70;;;;;;4902938;29;20051;-62
2023/06/02 01:40:53;;;;;;;12.05;2.15;;;32.60;33.80;;;;;;4908024;29;20063;-64
2023/06/02 01:43:20;;;;;;;12.68;2.20;;;32.60;33.50;;;;;;4902064;29;20157;-62
2023/06/02 01:45:46;;;;;;;11.30;1.75;;;32.50;33.30;;;;;;4904581;29;20061;-63
2023/06/02 01:48:13;;;;;;;8.88;2.13;;;32.50;33.60;;;;;;4902007;29;20064;-62
2023/06/02 01:50:40;;;;;;;19.95;2.47;;;32.50;33.60;;;;;;4911865;29;20472;-71
2023/06/02 01:53:07;;;;;;;22.33;2.17;;;32.40;33.30;;;;;;4900198;29;20059;-66
2023/06/02 01:55:34;;;;;;;23.50;2.38;;;32.40;33.40;;;;;;4907697;29;20053;-67
2023/06/02 01:58:00;;;;;;;17.55;1.80;;;32.30;33.30;;;;;;4910573;29;20079;-70
2023/06/02 02:00:27;;;;;;;12.15;2.00;;;32.20;33.50;;;;;;4910166;29;20068;-70
2023/06/02 02:02:54;;;;;;;26.48;2.53;;;32.10;33.60;;;;;;4908509;29;20105;-69
2023/06/02 02:05:21;;;;;;;11.63;2.08;;;31.90;33.70;;;;;;4909548;29;20067;-71
2023/06/02 02:07:50;;;;;;;13.60;1.98;;;31.80;33.80;;;;;;4908532;29;20059;-68
2023/06/02 02:10:17;;;;;;;18.00;2.40;;;31.70;33.60;;;;;;4909754;29;20076;-67
2023/06/02 02:12:44;;;;;;;14.15;2.40;;;31.70;33.80;;;;;;4908526;29;20119;-66
2023/06/02 02:15:11;;;;;;;22.10;2.53;;;31.60;34.00;;;;;;4906428;29;20143;-67
2023/06/02 02:17:57;;;;;;;14.30;2.88;;;31.60;34.10;;;;;;4907611;29;20061;-68
2023/06/02 02:20:23;;;;;;;8.93;1.90;;;31.60;34.00;;;;;;4907709;29;20119;-67
2023/06/02 02:22:50;;;;;;;12.35;1.92;;;31.50;33.90;;;;;;4904185;29;20164;-66
2023/06/02 02:25:16;;;;;;;18.20;2.22;;;31.40;33.90;;;;;;4906268;29;20118;-67
2023/06/02 02:27:43;;;;;;;13.60;2.28;;;31.30;33.80;;;;;;4909701;29;20436;-67
2023/06/02 02:30:10;;;;;;;13.00;2.08;;;31.30;34.00;;;;;;4908723;29;20121;-69
2023/06/02 02:32:43;;;;;;;11.60;2.20;;;31.20;34.00;;;;;;4908843;29;20083;-68
2023/06/02 02:35:10;;;;;;;21.48;2.53;;;31.10;34.00;;;;;;4907606;29;20055;-68
2023/06/02 02:37:36;;;;;;;16.25;2.00;;;31.10;34.20;;;;;;4907889;29;20069;-69
2023/06/02 02:40:04;;;;;;;16.35;2.30;;;31.00;34.30;;;;;;4896870;29;20069;-71
2023/06/02 02:42:33;;;;;;;15.07;2.63;;;30.90;34.30;;;;;;4904568;29;20131;-71
2023/06/02 02:45:02;;;;;;;16.13;2.22;;;30.90;34.50;;;;;;4904020;29;20072;-68
2023/06/02 02:47:29;;;;;;;26.27;2.75;;;30.80;34.50;;;;;;4905396;29;20130;-69
2023/06/02 02:49:55;;;;;;;21.38;2.67;;;30.80;34.60;;;;;;4908875;29;20556;-68
2023/06/02 02:52:24;;;;;;;18.88;2.80;;;30.60;34.60;;;;;;4910961;29;20087;-67
2023/06/02 02:54:50;;;;;;;19.90;3.05;;;30.60;34.80;;;;;;4905393;29;20079;-67
2023/06/02 02:57:17;;;;;;;25.13;3.92;;;30.50;34.70;;;;;;4906093;29;20125;-68
2023/06/02 02:59:43;;;;;;;25.85;2.85;;;30.50;34.80;;;;;;4909942;29;20064;-68
2023/06/02 03:02:09;;;;;;;25.35;3.00;;;30.40;34.60;;;;;;4907228;29;20131;-67
2023/06/02 03:04:36;;;;;;;31.98;3.00;;;30.40;34.70;;;;;;4907313;29;20078;-69
2023/06/02 03:07:02;;;;;;;23.92;3.05;;;30.40;34.70;;;;;;4904659;29;20191;-69
2023/06/02 03:09:29;;;;;;;14.85;3.08;;;30.30;34.80;;;;;;4909522;29;20070;-68
2023/06/02 03:11:57;;;;;;;25.05;3.35;;;30.30;34.80;;;;;;4905432;29;20118;-70
2023/06/02 03:14:27;;;;;;;37.58;4.05;;;30.20;34.90;;;;;;4907070;29;20106;-67
2023/06/02 03:16:54;;;;;;;34.15;4.22;;;30.10;35.00;;;;;;4906117;29;20148;-69
2023/06/02 03:19:24;;;;;;;36.60;3.85;;;30.00;35.30;;;;;;4911146;29;20092;-68
2023/06/02 03:21:51;;;;;;;24.67;2.92;;;30.00;35.40;;;;;;4911176;29;20435;-69
2023/06/02 03:24:20;;;;;;;33.83;3.97;;;30.00;36.30;;;;;;4907194;29;20708;-68
2023/06/02 03:26:47;;;;;;;25.40;3.63;;;29.90;36.40;;;;;;4906297;29;20073;-69
2023/06/02 03:29:13;;;;;;;26.00;3.55;;;29.90;36.60;;;;;;4911192;29;20440;-68
2023/06/02 03:31:43;;;;;;;38.22;3.95;;;29.80;36.60;;;;;;4905513;29;20134;-68
2023/06/02 03:34:10;;;;;;;21.45;3.20;;;29.70;36.60;;;;;;4905742;29;20060;-68
2023/06/02 03:36:37;;;;;;;17.15;2.58;;;29.70;37.00;;;;;;4908229;29;20064;-70
2023/06/02 03:39:07;;;;;;;29.45;3.25;;;29.60;37.50;;;;;;4908027;29;20448;-69
2023/06/02 03:41:36;;;;;;;24.85;3.03;;;29.50;37.30;;;;;;4902674;29;20430;-70
2023/06/02 03:44:03;;;;;;;14.10;2.67;;;29.50;37.20;;;;;;4901808;29;20070;-70
2023/06/02 03:46:30;;;;;;;23.83;3.35;;;29.50;38.00;;;;;;4911466;29;20083;-69
2023/06/02 03:48:57;;;;;;;26.35;3.58;;;29.50;39.00;;;;;;4910422;29;20074;-69
2023/06/02 03:51:23;;;;;;;16.60;2.92;;;29.40;38.50;;;;;;4906986;29;20073;-72
2023/06/02 03:53:50;;;;;;;26.65;3.45;;;29.30;38.80;;;;;;4907276;29;20462;-68
2023/06/02 03:56:19;;;;;;;24.30;3.65;;;29.20;39.80;;;;;;4912002;29;20534;-69
2023/06/02 03:58:45;;;;;;;19.10;4.18;;;29.10;40.00;;;;;;4909908;29;20929;-71
2023/06/02 04:01:12;;;;;;;32.13;4.03;;;29.10;40.40;;;;;;4912999;29;20407;-63
2023/06/02 04:03:41;;;;;;;27.45;4.47;;;29.00;41.00;;;;;;4911328;29;20588;-65
2023/06/02 04:06:08;;;;;;;25.60;5.18;;;29.00;41.80;;;;;;4910808;29;20067;-65
2023/06/02 04:08:35;;;;;;;22.15;4.10;;;28.90;42.00;;;;;;4906002;29;20109;-66
2023/06/02 04:11:01;;;;;;;22.55;3.67;;;28.80;42.30;;;;;;4904433;29;20088;-66
2023/06/02 04:13:28;;;;;;;15.43;3.38;;;28.70;42.90;;;;;;4903038;29;20090;-67
2023/06/02 04:15:54;;;;;;;13.93;3.78;;;28.70;42.70;;;;;;4906824;29;20078;-65
2023/06/02 04:18:21;;;;;;;12.63;3.30;;;28.50;43.40;;;;;;4909260;29;20176;-67
2023/06/02 04:20:47;;;;;;;21.90;3.63;;;28.20;43.80;;;;;;4910395;29;20075;-67
2023/06/02 04:23:14;;;;;;;15.35;3.58;;;28.00;44.20;;;;;;4908464;29;20103;-63
2023/06/02 04:25:41;;;;;;;19.50;3.33;;;28.10;44.30;;;;;;4901351;29;20647;-64
2023/06/02 04:28:07;;;;;;;17.05;3.65;;;28.10;43.90;;;;;;4910271;29;20077;-65
2023/06/02 04:30:36;;;;;;;16.92;3.95;;;28.10;44.20;;;;;;4910647;29;20613;-65
2023/06/02 04:33:03;;;;;;;14.80;3.30;;;28.00;44.40;;;;;;4908594;29;20563;-64
2023/06/02 04:35:30;;;;;;;18.67;3.63;;;27.80;44.40;;;;;;4908544;29;20072;-64
2023/06/02 04:37:56;;;;;;;23.88;3.60;;;27.70;44.10;;;;;;4910993;29;20154;-65
2023/06/02 04:40:23;;;;;;;9.23;3.88;;;27.70;44.20;;;;;;4909025;29;20086;-65
2023/06/02 04:42:49;;;;;;;16.65;3.60;;;27.80;44.30;;;;;;4908324;29;20075;-66
2023/06/02 04:45:16;;;;;;;28.10;4.07;;;27.60;44.30;;;;;;4908711;29;20557;-65
2023/06/02 04:47:43;;;;;;;24.98;4.38;;;27.60;44.80;;;;;;4908309;29;20493;-64
2023/06/02 04:50:12;;;;;;;26.13;4.40;;;27.60;44.50;;;;;;4908611;29;20066;-66
2023/06/02 04:52:47;;;;;;;20.45;4.60;;;27.70;44.40;;;;;;4907649;29;20090;-64
2023/06/02 04:55:14;;;;;;;23.02;4.70;;;27.50;45.00;;;;;;4905615;29;20512;-65
2023/06/02 04:57:41;;;;;;;21.85;4.05;;;27.50;44.90;;;;;;4909377;29;20095;-61
2023/06/02 05:00:10;;;;;;;22.00;4.18;;;27.50;45.40;;;;;;4912512;29;20102;-65
2023/06/02 05:02:36;;;;;;;26.85;3.38;;;27.30;44.70;;;;;;4910071;29;20523;-63
2023/06/02 05:05:05;;;;;;;14.07;3.65;;;27.40;44.10;;;;;;4908524;29;20117;-65
2023/06/02 05:07:32;;;;;;;10.88;3.60;;;27.40;43.60;;;;;;4909388;29;20172;-64
2023/06/02 05:09:58;;;;;;;18.20;4.18;;;27.40;42.80;;;;;;4907939;29;20110;-65
2023/06/02 05:12:27;;;;;;;13.07;5.00;;;27.30;42.60;;;;;;4907139;29;20347;-67
2023/06/02 05:14:54;;;;;;;12.50;3.97;;;27.20;42.50;;;;;;4907449;29;20068;-63
2023/06/02 05:17:22;;;;;;;19.33;4.63;;;27.30;43.50;;;;;;4911786;29;20106;-67
2023/06/02 05:19:53;;;;;;;15.50;4.60;;;27.30;42.80;;;;;;4906211;29;20502;-65
2023/06/02 05:22:20;;;;;;;10.25;3.60;;;27.30;43.20;;;;;;4906781;29;20471;-68
2023/06/02 05:24:46;;;;;;;21.65;4.82;;;27.20;43.30;;;;;;4899402;29;20076;-66
2023/06/02 05:27:13;;;;;;;11.40;3.70;;;27.20;43.40;;;;;;4906115;29;20077;-67
2023/06/02 05:29:39;;;;;;;25.73;3.92;;;27.30;43.70;;;;;;4906323;29;20538;-69
2023/06/02 05:32:08;;;;;;;17.35;3.78;;;27.20;43.70;;;;;;4904902;29;20614;-65
2023/06/02 05:34:34;;;;;;;20.10;3.25;;;27.20;44.10;;;;;;4901712;29;20157;-65
2023/06/02 05:37:02;;;;;;;21.27;3.22;;;27.20;44.00;;;;;;4902556;29;20122;-66
2023/06/02 05:39:29;;;;;;;20.13;4.00;;;27.20;44.30;;;;;;4904361;29;20132;-65
2023/06/02 05:41:55;;;;;;;14.07;3.55;;;27.10;44.70;;;;;;4905385;29;20089;-68
2023/06/02 05:44:22;;;;;;;22.23;4.05;;;26.90;45.30;;;;;;4904330;29;20072;-66
2023/06/02 05:46:48;;;;;;;14.48;4.00;;;26.80;45.60;;;;;;4908504;29;20078;-66
2023/06/02 05:49:14;;;;;;;19.30;4.38;;;26.50;46.30;;;;;;4902609;29;20596;-66
2023/06/02 05:51:41;;;;;;;20.73;4.28;;;26.50;46.20;;;;;;4906316;29;20083;-69
2023/06/02 05:54:08;;;;;;;28.23;4.20;;;26.50;47.00;;;;;;4909000;29;20159;-67
2023/06/02 05:56:35;;;;;;;18.95;4.43;;;26.50;46.80;;;;;;4900676;29;20084;-68
2023/06/02 05:59:01;;;;;;;15.70;4.68;;;26.40;46.80;;;;;;4910597;29;20076;-63
2023/06/02 06:01:28;;;;;;;23.40;5.07;;;26.40;47.20;;;;;;4907071;29;20079;-67
2023/06/02 06:03:54;;;;;;;19.60;4.60;;;26.20;47.40;;;;;;4906500;29;20075;-66
2023/06/02 06:06:21;;;;;;;20.13;5.32;;;26.20;47.40;;;;;;4909092;29;20091;-65
2023/06/02 06:08:47;;;;;;;16.77;4.72;;;26.30;47.50;;;;;;4907826;29;20511;-65
2023/06/02 06:11:14;;;;;;;18.63;4.70;;;26.10;47.90;;;;;;4908215;29;20098;-65
2023/06/02 06:13:40;;;;;;;14.80;3.78;;;26.10;47.40;;;;;;4906113;29;20464;-65
2023/06/02 06:16:07;;;;;;;23.15;3.70;;;26.00;47.80;;;;;;4906635;29;20071;-67
2023/06/02 06:18:33;;;;;;;13.38;3.70;;;26.00;48.10;;;;;;4909403;29;20130;-64
2023/06/02 06:21:00;;;;;;;18.17;3.78;;;26.00;49.00;;;;;;4906581;29;20528;-65
2023/06/02 06:23:26;;;;;;;33.85;4.43;;;25.90;48.80;;;;;;4907364;29;20150;-63
2023/06/02 06:25:52;;;;;;;18.80;3.95;;;25.90;48.70;;;;;;4904650;29;20170;-65
2023/06/02 06:28:19;;;;;;;21.05;4.38;;;26.00;51.70;;;;;;4913184;29;20071;-66
2023/06/02 06:30:45;;;;;;;14.88;4.07;;;25.90;55.60;;;;;;4910144;29;20122;-66
2023/06/02 06:33:12;;;;;;;18.02;4.13;;;26.00;55.40;;;;;;4912748;29;20190;-65
2023/06/02 06:35:38;;;;;;;19.40;5.53;;;25.90;54.80;;;;;;4913248;29;20163;-63
2023/06/02 06:38:04;;;;;;;21.13;6.03;;;25.80;53.00;;;;;;4911496;29;20076;-66
2023/06/02 06:40:34;;;;;;;21.70;5.55;;;25.70;53.40;;;;;;4910293;29;20549;-66
2023/06/02 06:43:01;;;;;;;25.08;5.03;;;25.70;55.30;;;;;;4913010;29;20111;-64
2023/06/02 06:45:28;;;;;;;29.90;4.65;;;25.60;57.90;;;;;;4913681;29;20162;-67
2023/06/02 06:47:54;;;;;;;21.70;4.75;;;25.70;59.60;;;;;;4914374;29;20087;-66
2023/06/02 06:50:20;;;;;;;28.90;4.72;;;25.70;61.00;;;;;;4906347;29;20072;-66
2023/06/02 06:52:48;;;;;;;20.75;4.72;;;25.50;63.20;;;;;;4909125;29;20096;-66
2023/06/02 06:55:14;;;;;;;21.38;4.32;;;25.40;65.30;;;;;;4907204;29;20076;-64
2023/06/02 06:57:41;;;;;;;16.05;4.47;;;25.40;67.00;;;;;;4908871;29;20565;-64
2023/06/02 07:00:08;;;;;;;18.30;3.95;;;25.20;68.40;;;;;;4914781;29;20095;-65
2023/06/02 07:02:34;;;;;;;19.33;4.25;;;25.30;70.40;;;;;;4913001;29;20129;-68
2023/06/02 07:05:01;;;;;;;24.10;3.90;;;25.30;69.90;;;;;;4912258;29;20524;-66
2023/06/02 07:07:27;;;;;;;14.73;3.47;;;25.20;71.40;;;;;;4909954;29;20118;-65
2023/06/02 07:09:54;;;;;;;20.88;4.15;;;25.40;72.10;;;;;;4912950;29;20098;-65
2023/06/02 07:12:20;;;;;;;13.55;3.45;;;25.30;72.50;;;;;;4910877;29;20084;-67
2023/06/02 07:14:47;;;;;;;19.20;3.47;;;25.30;73.70;;;;;;4907517;29;20107;-64
2023/06/02 07:17:13;;;;;;;11.60;3.33;;;25.20;74.80;;;;;;4909131;29;20127;-65
2023/06/02 07:19:39;;;;;;;12.60;2.80;;;25.20;75.70;;;;;;4909556;29;20094;-66
2023/06/02 07:22:06;;;;;;;15.23;3.40;;;25.20;77.20;;;;;;4910872;29;20083;-66
2023/06/02 07:24:32;;;;;;;14.88;3.22;;;25.10;78.50;;;;;;4911216;29;20075;-65
2023/06/02 07:26:59;;;;;;;14.65;3.17;;;25.00;79.20;;;;;;4909134;29;20122;-66
2023/06/02 07:29:25;;;;;;;41.70;3.85;;;24.90;80.80;;;;;;4915032;29;20079;-66
2023/06/02 07:31:52;;;;;;;15.10;3.33;;;24.90;81.90;;;;;;4910533;29;20119;-66
2023/06/02 07:34:18;;;;;;;20.75;3.42;;;24.90;83.60;;;;;;4909409;29;20176;-68
2023/06/02 07:36:47;;;;;;;15.90;3.22;;;24.80;84.00;;;;;;4908855;29;20124;-68
2023/06/02 07:39:14;;;;;;;14.55;3.30;;;24.90;85.10;;;;;;4905685;29;20071;-66
2023/06/02 07:41:41;;;;;;;12.23;3.25;;;24.70;85.70;;;;;;4908168;29;20079;-67
2023/06/02 07:44:07;;;;;;;13.32;2.92;;;24.70;86.60;;;;;;4905567;29;20060;-66
2023/06/02 07:46:33;;;;;;;17.13;3.15;;;24.70;87.20;;;;;;4904072;29;20155;-67
2023/06/02 07:49:01;;;;;;;10.68;2.63;;;24.50;88.20;;;;;;4910267;29;20083;-66
2023/06/02 07:51:27;;;;;;;21.73;3.00;;;24.50;89.60;;;;;;4910272;29;20102;-66
2023/06/02 07:53:54;;;;;;;16.40;3.58;;;24.50;90.20;;;;;;4906050;29;20084;-67
2023/06/02 07:56:21;;;;;;;12.05;2.83;;;24.50;90.30;;;;;;4905642;29;20078;-65
2023/06/02 07:58:47;;;;;;;18.70;3.10;;;24.50;90.80;;;;;;4907567;29;20087;-67
2023/06/02 08:01:14;;;;;;;328.25;20.55;;;24.40;91.00;;;;;;4906952;29;20078;-66
2023/06/02 08:03:41;;;;;;;26.17;4.30;;;24.40;91.10;;;;;;4907335;29;20095;-65
2023/06/02 08:06:07;;;;;;;103.85;6.53;;;24.50;91.50;;;;;;4905052;29;20636;-66
2023/06/02 08:08:33;;;;;;;19.38;3.30;;;24.40;92.00;;;;;;4906677;29;20082;-64
2023/06/02 08:11:00;;;;;;;15.75;3.45;;;24.30;92.30;;;;;;4905654;29;20534;-66
2023/06/02 08:13:26;;;;;;;12.75;3.25;;;24.30;92.70;;;;;;4906089;29;20174;-65
2023/06/02 08:15:53;;;;;;;16.05;3.17;;;24.20;93.00;;;;;;4906804;29;20076;-65
2023/06/02 08:18:20;;;;;;;12.18;3.17;;;24.20;93.50;;;;;;4907458;29;20086;-67
2023/06/02 08:20:46;;;;;;;12.75;2.72;;;24.10;93.70;;;;;;4906104;29;20079;-65
2023/06/02 08:23:13;;;;;;;16.38;3.00;;;24.20;94.30;;;;;;4906486;29;20529;-65
2023/06/02 08:25:40;;;;;;;9.40;2.72;;;24.20;94.30;;;;;;4905809;29;20076;-64
2023/06/02 08:28:07;;;;;;;12.23;2.58;;;24.20;94.60;;;;;;4906617;29;20094;-65
2023/06/02 08:30:35;;;;;;;14.02;3.10;;;24.10;94.90;;;;;;4905531;29;20199;-66
2023/06/02 08:33:08;;;;;;;10.25;2.70;;;24.20;95.20;;;;;;4907126;29;20151;-64
2023/06/02 08:35:38;;;;;;;14.13;3.10;;;24.10;95.40;;;;;;4906888;29;20063;-68
2023/06/02 08:38:07;;;;;;;10.38;2.58;;;24.10;95.80;;;;;;4907317;29;21323;-66
2023/06/02 08:40:38;;;;;;;9.07;2.58;;;24.10;96.10;;;;;;4905201;29;20088;-65
2023/06/02 08:43:06;;;;;;;10.48;2.95;;;24.10;96.50;;;;;;4906088;29;20079;-65
2023/06/02 08:45:33;;;;;;;8.50;2.90;;;24.00;96.70;;;;;;4906186;29;20155;-65
2023/06/02 08:48:03;;;;;;;11.57;2.83;;;24.00;97.10;;;;;;4906784;29;20100;-65
2023/06/02 08:50:35;;;;;;;8.30;2.22;;;24.00;97.70;;;;;;4907060;29;20528;-66
2023/06/02 08:53:05;;;;;;;11.65;2.63;;;24.00;97.60;;;;;;4906055;29;20125;-66
2023/06/02 08:55:32;;;;;;;10.05;2.50;;;24.00;97.70;;;;;;4907554;29;20146;-68
2023/06/02 08:57:59;;;;;;;12.38;3.05;;;23.80;98.20;;;;;;4909085;29;20106;-66
2023/06/02 09:00:26;;;;;;;11.55;2.75;;;23.80;98.60;;;;;;4907199;29;20086;-66
2023/06/02 09:02:53;;;;;;;8.70;2.35;;;23.80;99.10;;;;;;4906332;29;20438;-67
2023/06/02 09:05:19;;;;;;;10.82;2.63;;;23.70;99.40;;;;;;4904696;29;20444;-64
2023/06/02 09:07:46;;;;;;;9.70;2.00;;;23.70;99.50;;;;;;4905348;29;20080;-65
2023/06/02 09:10:31;;;;;;;31.02;4.35;;;23.80;99.30;;;;;;4908200;29;20071;-65
2023/06/02 09:12:58;;;;;;;15.88;2.55;;;23.80;99.40;;;;;;4907561;29;20092;-65
2023/06/02 09:15:25;;;;;;;10.45;3.05;;;23.90;99.40;;;;;;4909629;29;20179;-66
2023/06/02 09:18:08;;;;;;;16.25;2.95;;;23.90;99.30;;;;;;4907874;29;20528;-64
2023/06/02 09:20:38;;;;;;;16.70;3.78;;;23.90;99.50;;;;;;4908552;29;20485;-65
2023/06/02 09:23:05;;;;;;;11.23;3.00;;;23.90;99.60;;;;;;4908794;29;20086;-64
2023/06/02 09:25:33;;;;;;;10.35;2.83;;;23.90;99.80;;;;;;4906827;29;20174;-65
2023/06/02 09:28:01;;;;;;;9.68;3.00;;;23.80;99.90;;;;;;4908074;29;20079;-66
2023/06/02 09:30:28;;;;;;;8.80;2.80;;;23.70;99.90;;;;;;4908197;29;20696;-65
2023/06/02 09:32:57;;;;;;;7.50;2.90;;;23.80;99.90;;;;;;4908155;29;20095;-67
2023/06/02 09:35:40;;;;;;;9.82;3.15;;;23.60;99.90;;;;;;4910793;29;20075;-66
2023/06/02 09:38:12;;;;;;;11.77;3.65;;;23.50;99.90;;;;;;4906824;29;20102;-65
2023/06/02 09:40:42;;;;;;;10.40;3.47;;;23.50;99.90;;;;;;4909560;29;20087;-66
2023/06/02 09:43:10;;;;;;;9.88;3.65;;;23.40;99.90;;;;;;4908435;29;20079;-63
2023/06/02 09:45:49;;;;;;;16.10;4.20;;;23.30;99.90;;;;;;4907472;29;20075;-65
2023/06/02 09:48:28;;;;;;;12.73;4.80;;;23.30;99.90;;;;;;4905420;29;20083;-64
2023/06/02 09:50:55;;;;;;;14.98;4.85;;;23.20;99.90;;;;;;4908222;29;20110;-65
2023/06/02 09:53:22;;;;;;;12.90;4.88;;;23.20;99.90;;;;;;4908671;29;20087;-65
2023/06/02 09:55:50;;;;;;;12.80;4.10;;;23.10;99.90;;;;;;4911364;29;20445;-67
2023/06/02 09:58:17;;;;;;;11.63;3.75;;;23.10;99.90;;;;;;4909387;29;20174;-65
2023/06/02 10:00:44;;;;;;;10.10;3.97;;;23.00;99.90;;;;;;4908369;29;20421;-65
2023/06/02 10:03:11;;;;;;;10.38;4.13;;;23.00;99.90;;;;;;4905811;29;20154;-67
2023/06/02 10:05:42;;;;;;;8.93;3.85;;;22.90;99.90;;;;;;4910171;29;20115;-65
2023/06/02 10:08:19;;;;;;;10.70;4.60;;;23.00;99.90;;;;;;4908818;29;20076;-64
2023/06/02 10:11:01;;;;;;;13.10;4.95;;;22.90;99.90;;;;;;4910234;29;20120;-65
2023/06/02 10:13:31;;;;;;;14.80;5.85;;;22.80;99.90;;;;;;4907598;29;20094;-63
2023/06/02 10:16:16;;;;;;;12.63;5.30;;;22.90;99.90;;;;;;4909663;29;20079;-64
2023/06/02 10:18:52;;;;;;;13.55;4.38;;;22.90;99.90;;;;;;4907898;29;20568;-66
2023/06/02 10:21:18;;;;;;;15.68;4.32;;;22.90;99.90;;;;;;4908887;29;20075;-67
2023/06/02 10:24:21;;;;;;;9.45;3.85;;;23.00;99.90;;;;;;4911075;29;20123;-66
2023/06/02 10:26:55;;;;;;;11.73;3.95;;;23.00;99.90;;;;;;4908939;29;20178;-67
2023/06/02 10:29:25;;;;;;;10.18;3.97;;;22.90;99.90;;;;;;4910924;29;20075;-65
2023/06/02 10:31:52;;;;;;;13.38;3.53;;;22.80;99.90;;;;;;4907869;29;20127;-64
2023/06/02 10:34:38;;;;;;;15.73;4.57;;;22.80;99.90;;;;;;4909312;29;20511;-65
2023/06/02 10:37:04;;;;;;;18.75;3.70;;;22.80;99.90;;;;;;4908492;29;20532;-64
2023/06/02 10:39:40;;;;;;;8.02;3.38;;;22.80;99.90;;;;;;4908546;29;20080;-66
2023/06/02 10:42:14;;;;;;;10.20;3.90;;;22.90;99.90;;;;;;4908618;29;20079;-65
2023/06/02 10:44:40;;;;;;;12.30;3.50;;;22.90;99.90;;;;;;4907995;29;20090;-66
2023/06/02 10:47:19;;;;;;;12.57;3.72;;;22.90;99.90;;;;;;4909986;29;20068;-65
2023/06/02 10:49:55;;;;;;;10.77;3.22;;;22.80;99.90;;;;;;4909678;29;20182;-65
2023/06/02 10:52:23;;;;;;;9.10;3.67;;;22.90;99.90;;;;;;4908438;29;20131;-65
2023/06/02 10:55:07;;;;;;;13.52;3.45;;;22.90;99.80;;;;;;4909398;29;20076;-65
2023/06/02 10:57:52;;;;;;;16.38;3.53;;;22.90;99.80;;;;;;4908542;29;20084;-65
2023/06/02 11:00:35;;;;;;;10.68;3.13;;;22.90;99.90;;;;;;4908653;29;20086;-66
2023/06/02 11:03:25;;;;;;;9.73;3.28;;;22.80;99.90;;;;;;4909114;29;20153;-64
2023/06/02 11:06:15;;;;;;;8.27;2.90;;;22.70;99.90;;;;;;4905253;29;20448;-67
2023/06/02 11:08:42;;;;;;;10.88;2.95;;;22.70;99.90;;;;;;4907383;29;20396;-66
2023/06/02 11:11:08;;;;;;;14.13;3.00;;;22.70;99.90;;;;;;4909896;29;20552;-65
2023/06/02 11:13:55;;;;;;;6.18;2.70;;;22.60;99.90;;;;;;4911450;29;20111;-65
2023/06/02 11:16:21;;;;;;;;;;;22.70;99.90;;;;;;4909829;29;20064;-64
2023/06/02 11:18:48;;;;;;;10.25;3.00;;;22.70;99.90;;;;;;4912609;29;20435;-65
2023/06/02 11:21:21;;;;;;;10.30;3.05;;;22.60;99.90;;;;;;4912579;29;20079;-66
2023/06/02 11:23:48;;;;;;;11.25;3.08;;;22.60;99.90;;;;;;4910856;29;20088;-63
2023/06/02 11:26:19;;;;;;;7.60;3.00;;;22.60;99.90;;;;;;4909772;29;20513;-64
2023/06/02 11:28:45;;;;;;;10.90;3.10;;;22.50;99.90;;;;;;4914180;29;20075;-66
2023/06/02 11:31:16;;;;;;;15.02;3.72;;;22.50;99.90;;;;;;4911440;29;20475;-65
2023/06/02 11:33:50;;;;;;;8.93;2.90;;;22.50;99.80;;;;;;4912412;29;20092;-66
2023/06/02 11:36:26;;;;;;;15.57;3.53;;;22.60;99.70;;;;;;4910941;29;20614;-64
2023/06/02 11:39:02;;;;;;;10.07;3.53;;;22.50;99.60;;;;;;4911184;29;20095;-66
2023/06/02 11:41:29;;;;;;;11.07;3.20;;;22.60;99.70;;;;;;4911169;29;20636;-66
2023/06/02 11:44:04;;;;;;;12.10;3.60;;;22.50;99.60;;;;;;4910091;29;20099;-66
2023/06/02 11:46:30;;;;;;;11.70;3.33;;;22.50;99.60;;;;;;4911888;29;20535;-64
2023/06/02 11:48:57;;;;;;;10.90;3.40;;;22.50;99.40;;;;;;4912020;29;20938;-66
2023/06/02 11:51:24;;;;;;;9.70;3.22;;;22.50;99.30;;;;;;4912375;29;20166;-66
2023/06/02 11:54:04;;;;;;;14.45;4.30;;;22.50;99.70;;;;;;4912088;29;20174;-65
2023/06/02 11:56:32;;;;;;;14.27;3.55;;;22.40;99.60;;;;;;4913635;29;20083;-64
2023/06/02 11:58:59;;;;;;;16.00;4.20;;;22.30;99.40;;;;;;4911334;29;20076;-66
2023/06/02 12:01:31;;;;;;;12.43;4.07;;;22.20;99.80;;;;;;4911482;29;20163;-66
2023/06/02 12:04:06;;;;;;;10.48;4.18;;;22.20;99.90;;;;;;4909635;29;20072;-65
2023/06/02 12:06:34;;;;;;;10.40;4.25;;;22.30;99.90;;;;;;4910894;29;20115;-65
2023/06/02 12:09:15;;;;;;;12.40;4.28;;;22.30;99.70;;;;;;4910542;29;20072;-66
2023/06/02 12:11:43;;;;;;;11.05;3.53;;;22.30;99.90;;;;;;4909552;29;20126;-65
2023/06/02 12:14:10;;;;;;;8.40;3.53;;;22.30;99.70;;;;;;4911982;29;20088;-64
2023/06/02 12:16:42;;;;;;;13.15;3.30;;;22.20;99.90;;;;;;4911389;29;20190;-64
2023/06/02 12:19:21;;;;;;;15.52;3.40;;;22.20;99.90;;;;;;4912079;29;20072;-65
2023/06/02 12:21:54;;;;;;;10.75;3.70;;;22.10;99.90;;;;;;4910178;29;20078;-65
2023/06/02 12:24:30;;;;;;;12.20;4.35;;;22.00;99.90;;;;;;4911020;29;20072;-65
2023/06/02 12:26:57;;;;;;;9.40;3.88;;;22.10;99.90;;;;;;4910226;29;20099;-66
2023/06/02 12:29:24;;;;;;;10.43;3.58;;;22.10;99.90;;;;;;4913095;29;20572;-65
2023/06/02 12:32:01;;;;;;;17.95;3.50;;;22.10;99.90;;;;;;4910287;29;20636;-65
2023/06/02 12:34:28;;;;;;;9.35;3.53;;;22.00;99.90;;;;;;4910175;29;20108;-64
2023/06/02 12:36:55;;;;;;;11.57;3.47;;;22.00;99.90;;;;;;4908540;29;20563;-64
2023/06/02 12:39:21;;;;;;;14.93;4.25;;;21.90;99.90;;;;;;4909621;29;20163;-66
2023/06/02 12:41:48;;;;;;;20.27;4.90;;;21.90;99.90;;;;;;4909406;29;20075;-65
2023/06/02 12:44:14;;;;;;;8.75;3.42;;;21.90;99.90;;;;;;4909490;29;20080;-64
2023/06/02 12:46:41;;;;;;;12.20;3.40;;;22.00;99.90;;;;;;4910839;29;20075;-66